createdAt,value
2015-11-06T00:00:08.573Z,74243
2015-11-06T00:00:20.916Z,74241
2015-11-06T00:00:33.104Z,74234
2015-11-06T00:00:45.448Z,74239
2015-11-06T00:00:57.791Z,74242
2015-11-06T00:01:10.168Z,74241
2015-11-06T00:01:22.528Z,74237
2015-11-06T00:01:34.887Z,74243
2015-11-06T00:01:47.278Z,74242
2015-11-06T00:01:59.637Z,74245
2015-11-06T00:02:11.985Z,74240
2015-11-06T00:02:24.344Z,74242
2015-11-06T00:02:36.688Z,74239
2015-11-06T00:02:49.032Z,74238
2015-11-06T00:03:01.375Z,74239
2015-11-06T00:03:13.721Z,74240
2015-11-06T00:03:26.096Z,74243
2015-11-06T00:03:38.456Z,74241
2015-11-06T00:03:50.846Z,74242
2015-11-06T00:04:03.221Z,74243
2015-11-06T00:04:15.568Z,74238
2015-11-06T00:04:27.896Z,74237
2015-11-06T00:04:40.255Z,74240
2015-11-06T00:04:52.615Z,74237
2015-11-06T00:05:04.943Z,74242
2015-11-06T00:05:17.290Z,74240
2015-11-06T00:05:29.633Z,74242
2015-11-06T00:05:41.993Z,74243
2015-11-06T00:05:54.352Z,74248
2015-11-06T00:06:06.727Z,74244
2015-11-06T00:06:19.104Z,74242
2015-11-06T00:06:31.495Z,74242
2015-11-06T00:06:43.870Z,74239
2015-11-06T00:06:56.214Z,74240
2015-11-06T00:07:08.557Z,74239
2015-11-06T00:07:20.904Z,74235
2015-11-06T00:07:33.232Z,74247
2015-11-06T00:07:45.576Z,74236
2015-11-06T00:07:57.920Z,74238
2015-11-06T00:08:10.279Z,74238
2015-11-06T00:08:22.626Z,74239
2015-11-06T00:08:34.985Z,74240
2015-11-06T00:08:47.220Z,74241
2015-11-06T00:08:59.438Z,74236
2015-11-06T00:09:11.891Z,74236
2015-11-06T00:09:24.253Z,74239
2015-11-06T00:09:36.612Z,74243
2015-11-06T00:09:48.268Z,74238
2015-11-06T00:10:00.643Z,74246
2015-11-06T00:10:13.038Z,74237
2015-11-06T00:10:25.382Z,74244
2015-11-06T00:10:37.726Z,74240
2015-11-06T00:10:50.069Z,74244
2015-11-06T00:11:01.710Z,74240
2015-11-06T00:11:14.056Z,74240
2015-11-06T00:11:26.399Z,74246
2015-11-06T00:11:38.743Z,74240
2015-11-06T00:11:51.103Z,74241
2015-11-06T00:12:03.462Z,74238
2015-11-06T00:12:15.855Z,74241
2015-11-06T00:12:28.214Z,74242
2015-11-06T00:12:40.589Z,74250
2015-11-06T00:12:52.980Z,74243
2015-11-06T00:13:05.323Z,74245
2015-11-06T00:13:17.687Z,74238
2015-11-06T00:13:29.874Z,74243
2015-11-06T00:13:42.218Z,74240
2015-11-06T00:13:54.546Z,74247
2015-11-06T00:14:06.921Z,74244
2015-11-06T00:14:19.282Z,74248
2015-11-06T00:14:31.657Z,74242
2015-11-06T00:14:44.048Z,74251
2015-11-06T00:14:56.423Z,74243
2015-11-06T00:15:08.767Z,74248
2015-11-06T00:15:21.114Z,74249
2015-11-06T00:15:33.457Z,74241
2015-11-06T00:15:45.785Z,74247
2015-11-06T00:15:58.129Z,74242
2015-11-06T00:16:10.489Z,74249
2015-11-06T00:16:22.851Z,74245
2015-11-06T00:16:35.195Z,74241
2015-11-06T00:16:47.570Z,74244
2015-11-06T00:16:59.929Z,74243
2015-11-06T00:17:12.320Z,74254
2015-11-06T00:17:24.665Z,74245
2015-11-06T00:17:37.009Z,74245
2015-11-06T00:17:49.369Z,74246
2015-11-06T00:18:01.712Z,74245
2015-11-06T00:18:14.072Z,74244
2015-11-06T00:18:26.418Z,74245
2015-11-06T00:18:38.762Z,74249
2015-11-06T00:18:51.122Z,74245
2015-11-06T00:19:03.481Z,74246
2015-11-06T00:19:15.856Z,74241
2015-11-06T00:19:28.202Z,74240
2015-11-06T00:19:40.530Z,74238
2015-11-06T00:19:52.889Z,74250
2015-11-06T00:20:05.217Z,74247
2015-11-06T00:20:17.577Z,74251
2015-11-06T00:20:29.939Z,74247
2015-11-06T00:20:42.314Z,74251
2015-11-06T00:20:54.689Z,74246
2015-11-06T00:21:07.048Z,74249
2015-11-06T00:21:19.423Z,74241
2015-11-06T00:21:31.786Z,74244
2015-11-06T00:21:44.130Z,74247
2015-11-06T00:21:56.473Z,74244
2015-11-06T00:22:08.817Z,74251
2015-11-06T00:22:21.161Z,74239
2015-11-06T00:22:33.523Z,74243
2015-11-06T00:22:45.867Z,74243
2015-11-06T00:22:58.226Z,74244
2015-11-06T00:23:10.586Z,74247
2015-11-06T00:23:22.964Z,74241
2015-11-06T00:23:35.354Z,74242
2015-11-06T00:23:47.682Z,74243
2015-11-06T00:24:00.026Z,74244
2015-11-06T00:24:12.370Z,74241
2015-11-06T00:24:24.732Z,74252
2015-11-06T00:24:37.076Z,74246
2015-11-06T00:24:49.420Z,74246
2015-11-06T00:25:01.076Z,74244
2015-11-06T00:25:13.279Z,74249
2015-11-06T00:25:25.641Z,74241
2015-11-06T00:25:38.000Z,74246
2015-11-06T00:25:50.344Z,74244
2015-11-06T00:26:02.672Z,74245
2015-11-06T00:26:15.031Z,74248
2015-11-06T00:26:27.378Z,74238
2015-11-06T00:26:39.737Z,74246
2015-11-06T00:26:52.097Z,74246
2015-11-06T00:27:04.472Z,74248
2015-11-06T00:27:16.847Z,74248
2015-11-06T00:27:29.192Z,74245
2015-11-06T00:27:41.536Z,74250
2015-11-06T00:27:53.896Z,74243
2015-11-06T00:28:06.239Z,74250
2015-11-06T00:28:18.599Z,74242
2015-11-06T00:28:30.227Z,74249
2015-11-06T00:28:42.570Z,74240
2015-11-06T00:28:54.930Z,74244
2015-11-06T00:29:07.305Z,74239
2015-11-06T00:29:19.664Z,74247
2015-11-06T00:29:32.042Z,74246
2015-11-06T00:29:44.433Z,74249
2015-11-06T00:29:56.777Z,74246
2015-11-06T00:30:09.136Z,74247
2015-11-06T00:30:21.480Z,74242
2015-11-06T00:30:33.811Z,74247
2015-11-06T00:30:46.170Z,74245
2015-11-06T00:30:58.530Z,74243
2015-11-06T00:31:10.905Z,74250
2015-11-06T00:31:23.295Z,74244
2015-11-06T00:31:35.672Z,74246
2015-11-06T00:31:48.016Z,74244
2015-11-06T00:32:00.360Z,74243
2015-11-06T00:32:12.563Z,74246
2015-11-06T00:32:24.907Z,74246
2015-11-06T00:32:37.253Z,74250
2015-11-06T00:32:49.597Z,74249
2015-11-06T00:33:01.941Z,74251
2015-11-06T00:33:14.300Z,74243
2015-11-06T00:33:26.675Z,74252
2015-11-06T00:33:39.053Z,74245
2015-11-06T00:33:51.428Z,74253
2015-11-06T00:34:03.788Z,74241
2015-11-06T00:34:16.131Z,74247
2015-11-06T00:34:28.491Z,74244
2015-11-06T00:34:40.837Z,74252
2015-11-06T00:34:53.181Z,74248
2015-11-06T00:35:05.509Z,74249
2015-11-06T00:35:17.853Z,74251
2015-11-06T00:35:30.212Z,74250
2015-11-06T00:35:42.558Z,74248
2015-11-06T00:35:54.949Z,74252
2015-11-06T00:36:07.308Z,74249
2015-11-06T00:36:19.683Z,74256
2015-11-06T00:36:32.027Z,74249
2015-11-06T00:36:44.358Z,74252
2015-11-06T00:36:56.717Z,74250
2015-11-06T00:37:09.061Z,74254
2015-11-06T00:37:21.358Z,74253
2015-11-06T00:37:33.702Z,74246
2015-11-06T00:37:46.049Z,74249
2015-11-06T00:37:58.392Z,74253
2015-11-06T00:38:10.752Z,74255
2015-11-06T00:38:23.127Z,74255
2015-11-06T00:38:35.488Z,74253
2015-11-06T00:38:47.863Z,74252
2015-11-06T00:39:00.222Z,74248
2015-11-06T00:39:11.863Z,74247
2015-11-06T00:39:24.207Z,74252
2015-11-06T00:39:36.538Z,74252
2015-11-06T00:39:48.741Z,74260
2015-11-06T00:40:01.085Z,74253
2015-11-06T00:40:13.429Z,74260
2015-11-06T00:40:25.850Z,74253
2015-11-06T00:40:38.213Z,74257
2015-11-06T00:40:50.588Z,74252
2015-11-06T00:41:02.963Z,74255
2015-11-06T00:41:15.353Z,74256
2015-11-06T00:41:27.713Z,74248
2015-11-06T00:41:40.059Z,74255
2015-11-06T00:41:52.418Z,74250
2015-11-06T00:42:04.762Z,74257
2015-11-06T00:42:17.090Z,74255
2015-11-06T00:42:29.434Z,74250
2015-11-06T00:42:41.796Z,74250
2015-11-06T00:42:54.155Z,74251
2015-11-06T00:43:06.515Z,74252
2015-11-06T00:43:18.921Z,74251
2015-11-06T00:43:31.296Z,74253
2015-11-06T00:43:43.690Z,74246
2015-11-06T00:43:56.033Z,74249
2015-11-06T00:44:08.377Z,74249
2015-11-06T00:44:20.721Z,74253
2015-11-06T00:44:33.065Z,74255
2015-11-06T00:44:45.411Z,74248
2015-11-06T00:44:57.755Z,74255
2015-11-06T00:45:10.114Z,74248
2015-11-06T00:45:22.474Z,74254
2015-11-06T00:45:34.833Z,74249
2015-11-06T00:45:47.210Z,74255
2015-11-06T00:45:59.585Z,74256
2015-11-06T00:46:11.960Z,74250
2015-11-06T00:46:24.351Z,74258
2015-11-06T00:46:36.710Z,74248
2015-11-06T00:46:49.057Z,74253
2015-11-06T00:47:01.401Z,74252
2015-11-06T00:47:13.729Z,74248
2015-11-06T00:47:26.088Z,74257
2015-11-06T00:47:38.448Z,74256
2015-11-06T00:47:50.810Z,74252
2015-11-06T00:48:03.201Z,74249
2015-11-06T00:48:15.576Z,74258
2015-11-06T00:48:27.951Z,74251
2015-11-06T00:48:40.294Z,74253
2015-11-06T00:48:52.625Z,74261
2015-11-06T00:49:04.985Z,74250
2015-11-06T00:49:17.313Z,74250
2015-11-06T00:49:29.688Z,74251
2015-11-06T00:49:42.032Z,74246
2015-11-06T00:49:53.674Z,74257
2015-11-06T00:50:06.034Z,74251
2015-11-06T00:50:18.393Z,74257
2015-11-06T00:50:30.768Z,74253
2015-11-06T00:50:43.143Z,74245
2015-11-06T00:50:55.505Z,74257
2015-11-06T00:51:07.849Z,74246
2015-11-06T00:51:20.193Z,74259
2015-11-06T00:51:32.537Z,74254
2015-11-06T00:51:44.883Z,74249
2015-11-06T00:51:57.227Z,74253
2015-11-06T00:52:09.571Z,74247
2015-11-06T00:52:21.930Z,74252
2015-11-06T00:52:34.274Z,74252
2015-11-06T00:52:46.652Z,74255
2015-11-06T00:52:59.011Z,74250
2015-11-06T00:53:11.340Z,74261
2015-11-06T00:53:23.699Z,74247
2015-11-06T00:53:36.043Z,74258
2015-11-06T00:53:48.388Z,74247
2015-11-06T00:54:00.717Z,74252
2015-11-06T00:54:13.060Z,74248
2015-11-06T00:54:25.435Z,74253
2015-11-06T00:54:37.795Z,74260
2015-11-06T00:54:50.126Z,74248
2015-11-06T00:55:02.470Z,74257
2015-11-06T00:55:14.110Z,74250
2015-11-06T00:55:26.454Z,74252
2015-11-06T00:55:38.798Z,74248
2015-11-06T00:55:51.176Z,74250
2015-11-06T00:56:03.519Z,74251
2015-11-06T00:56:15.894Z,74249
2015-11-06T00:56:28.238Z,74254
2015-11-06T00:56:40.582Z,74250
2015-11-06T00:56:52.943Z,74257
2015-11-06T00:57:05.287Z,74252
2015-11-06T00:57:17.631Z,74257
2015-11-06T00:57:29.975Z,74250
2015-11-06T00:57:42.252Z,74256
2015-11-06T00:57:54.614Z,74248
2015-11-06T00:58:06.958Z,74252
2015-11-06T00:58:19.302Z,74250
2015-11-06T00:58:31.661Z,74246
2015-11-06T00:58:44.067Z,74256
2015-11-06T00:58:56.414Z,74245
2015-11-06T00:59:08.758Z,74253
2015-11-06T00:59:21.102Z,74250
2015-11-06T00:59:33.445Z,74254
2015-11-06T00:59:45.789Z,74250
2015-11-06T00:59:58.135Z,74252
2015-11-06T01:00:10.479Z,74255
2015-11-06T01:00:22.838Z,74255
2015-11-06T01:00:35.197Z,74249
2015-11-06T01:00:47.572Z,74260
2015-11-06T01:00:59.920Z,74252
2015-11-06T01:01:12.264Z,74254
2015-11-06T01:01:24.608Z,74252
2015-11-06T01:01:36.951Z,74254
2015-11-06T01:01:49.295Z,74257
2015-11-06T01:02:01.657Z,74253
2015-11-06T01:02:13.985Z,74256
2015-11-06T01:02:26.344Z,74248
2015-11-06T01:02:38.719Z,74254
2015-11-06T01:02:51.094Z,74260
2015-11-06T01:03:03.488Z,74255
2015-11-06T01:03:15.831Z,74261
2015-11-06T01:03:28.175Z,74255
2015-11-06T01:03:40.519Z,74254
2015-11-06T01:03:52.863Z,74257
2015-11-06T01:04:05.209Z,74256
2015-11-06T01:04:17.553Z,74261
2015-11-06T01:04:29.897Z,74256
2015-11-06T01:04:42.272Z,74261
2015-11-06T01:04:53.772Z,74252
2015-11-06T01:05:06.149Z,74257
2015-11-06T01:05:18.540Z,74261
2015-11-06T01:05:30.868Z,74253
2015-11-06T01:05:43.227Z,74257
2015-11-06T01:05:55.555Z,74259
2015-11-06T01:06:07.918Z,74262
2015-11-06T01:06:20.261Z,74250
2015-11-06T01:06:32.605Z,74257
2015-11-06T01:06:44.964Z,74251
2015-11-06T01:06:57.327Z,74253
2015-11-06T01:07:09.702Z,74257
2015-11-06T01:07:22.061Z,74248
2015-11-06T01:07:33.686Z,74258
2015-11-06T01:07:46.030Z,74253
2015-11-06T01:07:58.407Z,74260
2015-11-06T01:08:10.751Z,74253
2015-11-06T01:08:23.110Z,74256
2015-11-06T01:08:35.469Z,74259
2015-11-06T01:08:47.860Z,74255
2015-11-06T01:09:00.207Z,74260
2015-11-06T01:09:12.551Z,74255
2015-11-06T01:09:24.894Z,74259
2015-11-06T01:09:37.238Z,74258
2015-11-06T01:09:49.597Z,74259
2015-11-06T01:10:01.944Z,74253
2015-11-06T01:10:14.319Z,74264
2015-11-06T01:10:26.710Z,74259
2015-11-06T01:10:39.054Z,74260
2015-11-06T01:10:51.397Z,74261
2015-11-06T01:11:03.760Z,74263
2015-11-06T01:11:16.088Z,74256
2015-11-06T01:11:28.432Z,74257
2015-11-06T01:11:40.791Z,74254
2015-11-06T01:11:53.150Z,74252
2015-11-06T01:12:05.512Z,74260
2015-11-06T01:12:17.855Z,74258
2015-11-06T01:12:30.199Z,74258
2015-11-06T01:12:42.543Z,74261
2015-11-06T01:12:54.746Z,74258
2015-11-06T01:13:07.107Z,74261
2015-11-06T01:13:19.451Z,74257
2015-11-06T01:13:31.811Z,74258
2015-11-06T01:13:44.170Z,74257
2015-11-06T01:13:56.529Z,74255
2015-11-06T01:14:08.892Z,74262
2015-11-06T01:14:21.235Z,74256
2015-11-06T01:14:33.579Z,74260
2015-11-06T01:14:45.939Z,74256
2015-11-06T01:14:58.282Z,74262
2015-11-06T01:15:10.613Z,74264
2015-11-06T01:15:22.957Z,74262
2015-11-06T01:15:35.317Z,74261
2015-11-06T01:15:47.676Z,74263
2015-11-06T01:16:00.038Z,74255
2015-11-06T01:16:12.398Z,74264
2015-11-06T01:16:24.773Z,74255
2015-11-06T01:16:37.116Z,74262
2015-11-06T01:16:49.460Z,74261
2015-11-06T01:17:01.807Z,74259
2015-11-06T01:17:13.432Z,74263
2015-11-06T01:17:25.791Z,74256
2015-11-06T01:17:38.135Z,74261
2015-11-06T01:17:50.479Z,74255
2015-11-06T01:18:02.840Z,74256
2015-11-06T01:18:15.200Z,74261
2015-11-06T01:18:27.575Z,74263
2015-11-06T01:18:39.965Z,74263
2015-11-06T01:18:51.637Z,74261
2015-11-06T01:19:03.984Z,74259
2015-11-06T01:19:16.328Z,74269
2015-11-06T01:19:28.687Z,74262
2015-11-06T01:19:41.031Z,74263
2015-11-06T01:19:53.374Z,74258
2015-11-06T01:20:05.706Z,74261
2015-11-06T01:20:18.065Z,74259
2015-11-06T01:20:30.424Z,74257
2015-11-06T01:20:42.799Z,74261
2015-11-06T01:20:55.159Z,74263
2015-11-06T01:21:07.536Z,74259
2015-11-06T01:21:19.911Z,74265
2015-11-06T01:21:32.364Z,74265
2015-11-06T01:21:44.692Z,74257
2015-11-06T01:21:57.036Z,74258
2015-11-06T01:22:09.383Z,74255
2015-11-06T01:22:21.727Z,74259
2015-11-06T01:22:34.071Z,74263
2015-11-06T01:22:57.118Z,74264
2015-11-06T01:23:09.385Z,74266
2015-11-06T01:23:21.776Z,74265
2015-11-06T01:23:34.135Z,74267
2015-11-06T01:23:46.464Z,74260
2015-11-06T01:23:58.807Z,74258
2015-11-06T01:24:11.154Z,74260
2015-11-06T01:24:23.482Z,74265
2015-11-06T01:24:35.857Z,74263
2015-11-06T01:24:48.232Z,74269
2015-11-06T01:25:00.576Z,74267
2015-11-06T01:25:12.954Z,74268
2015-11-06T01:25:25.313Z,74270
2015-11-06T01:25:37.688Z,74272
2015-11-06T01:25:50.048Z,74272
2015-11-06T01:26:02.376Z,74265
2015-11-06T01:26:14.768Z,74270
2015-11-06T01:26:27.112Z,74273
2015-11-06T01:26:39.456Z,74269
2015-11-06T01:26:51.784Z,74272
2015-11-06T01:27:04.128Z,74265
2015-11-06T01:27:16.474Z,74267
2015-11-06T01:27:28.849Z,74267
2015-11-06T01:27:41.224Z,74271
2015-11-06T01:27:53.567Z,74269
2015-11-06T01:28:05.915Z,74268
2015-11-06T01:28:18.259Z,74266
2015-11-06T01:28:30.587Z,74265
2015-11-06T01:28:42.759Z,74268
2015-11-06T01:28:55.103Z,74266
2015-11-06T01:29:07.449Z,74270
2015-11-06T01:29:19.809Z,74270
2015-11-06T01:29:32.168Z,74276
2015-11-06T01:29:44.527Z,74272
2015-11-06T01:29:56.918Z,74272
2015-11-06T01:30:09.263Z,74271
2015-11-06T01:30:21.622Z,74274
2015-11-06T01:30:33.810Z,74273
2015-11-06T01:30:46.153Z,74272
2015-11-06T01:30:58.497Z,74272
2015-11-06T01:31:10.845Z,74274
2015-11-06T01:31:23.189Z,74268
2015-11-06T01:31:35.548Z,74270
2015-11-06T01:31:47.907Z,74263
2015-11-06T01:32:00.282Z,74281
2015-11-06T01:32:12.644Z,74271
2015-11-06T01:32:25.066Z,74269
2015-11-06T01:32:37.394Z,74270
2015-11-06T01:32:49.738Z,74266
2015-11-06T01:33:02.081Z,74263
2015-11-06T01:33:14.429Z,74266
2015-11-06T01:33:26.773Z,74256
2015-11-06T01:33:39.117Z,74257
2015-11-06T01:33:51.460Z,74266
2015-11-06T01:34:03.820Z,74272
2015-11-06T01:34:16.197Z,74271
2015-11-06T01:34:28.572Z,74277
2015-11-06T01:34:40.962Z,74272
2015-11-06T01:34:53.306Z,74266
2015-11-06T01:35:05.650Z,74256
2015-11-06T01:35:17.997Z,74258
2015-11-06T01:35:30.340Z,74263
2015-11-06T01:35:42.700Z,74261
2015-11-06T01:35:55.059Z,74255
2015-11-06T01:36:07.403Z,74261
2015-11-06T01:36:19.749Z,74266
2015-11-06T01:36:32.108Z,74265
2015-11-06T01:36:44.467Z,74267
2015-11-06T01:36:56.858Z,74262
2015-11-06T01:37:09.233Z,74263
2015-11-06T01:37:21.611Z,74263
2015-11-06T01:37:33.955Z,74263
2015-11-06T01:37:45.580Z,74267
2015-11-06T01:37:57.923Z,74269
2015-11-06T01:38:10.267Z,74261
2015-11-06T01:38:22.614Z,74265
2015-11-06T01:38:34.958Z,74266
2015-11-06T01:38:47.317Z,74259
2015-11-06T01:38:59.692Z,74264
2015-11-06T01:39:12.051Z,74269
2015-11-06T01:39:24.413Z,74266
2015-11-06T01:39:36.772Z,74272
2015-11-06T01:39:49.100Z,74272
2015-11-06T01:40:01.444Z,74264
2015-11-06T01:40:13.788Z,74256
2015-11-06T01:40:25.994Z,74263
2015-11-06T01:40:38.353Z,74269
2015-11-06T01:40:50.728Z,74263
2015-11-06T01:41:03.103Z,74260
2015-11-06T01:41:15.494Z,74263
2015-11-06T01:41:27.919Z,74264
2015-11-06T01:41:40.278Z,74260
2015-11-06T01:41:52.606Z,74268
2015-11-06T01:42:04.794Z,74264
2015-11-06T01:42:17.153Z,74264
2015-11-06T01:42:29.500Z,74260
2015-11-06T01:42:41.844Z,74269
2015-11-06T01:42:54.203Z,74262
2015-11-06T01:43:05.844Z,74265
2015-11-06T01:43:18.219Z,74267
2015-11-06T01:43:30.596Z,74274
2015-11-06T01:43:42.955Z,74265
2015-11-06T01:43:55.314Z,74263
2015-11-06T01:44:07.674Z,74261
2015-11-06T01:44:20.021Z,74264
2015-11-06T01:44:32.364Z,74263
2015-11-06T01:44:44.724Z,74266
2015-11-06T01:44:56.364Z,74268
2015-11-06T01:45:08.708Z,74272
2015-11-06T01:45:21.054Z,74265
2015-11-06T01:45:33.413Z,74265
2015-11-06T01:45:45.773Z,74255
2015-11-06T01:45:58.148Z,74248
2015-11-06T01:46:10.507Z,74254
2015-11-06T01:46:22.854Z,74255
2015-11-06T01:46:35.041Z,74265
2015-11-06T01:46:47.385Z,74268
2015-11-06T01:46:59.026Z,74270
2015-11-06T01:47:11.369Z,74270
2015-11-06T01:47:23.716Z,74271
2015-11-06T01:47:36.060Z,74264
2015-11-06T01:47:48.404Z,74261
2015-11-06T01:48:00.779Z,74263
2015-11-06T01:48:13.154Z,74260
2015-11-06T01:48:25.547Z,74262
2015-11-06T01:48:37.891Z,74267
2015-11-06T01:48:50.250Z,74261
2015-11-06T01:49:02.610Z,74264
2015-11-06T01:49:14.953Z,74266
2015-11-06T01:49:27.300Z,74271
2015-11-06T01:49:39.644Z,74269
2015-11-06T01:49:52.003Z,74268
2015-11-06T01:50:04.347Z,74266
2015-11-06T01:50:16.722Z,74265
2015-11-06T01:50:29.084Z,74263
2015-11-06T01:50:41.459Z,74265
2015-11-06T01:50:53.850Z,74261
2015-11-06T01:51:06.209Z,74262
2015-11-06T01:51:18.569Z,74261
2015-11-06T01:51:30.915Z,74263
2015-11-06T01:51:43.243Z,74270
2015-11-06T01:51:55.602Z,74272
2015-11-06T01:52:07.946Z,74268
2015-11-06T01:52:20.305Z,74262
2015-11-06T01:52:32.652Z,74267
2015-11-06T01:52:45.011Z,74267
2015-11-06T01:52:57.402Z,74269
2015-11-06T01:53:09.793Z,74268
2015-11-06T01:53:22.152Z,74266
2015-11-06T01:53:34.498Z,74263
2015-11-06T01:53:46.841Z,74266
2015-11-06T01:53:59.185Z,74266
2015-11-06T01:54:11.529Z,74261
2015-11-06T01:54:23.873Z,74260
2015-11-06T01:54:36.251Z,74259
2015-11-06T01:54:48.626Z,74258
2015-11-06T01:55:01.016Z,74260
2015-11-06T01:55:13.391Z,74258
2015-11-06T01:55:25.735Z,74262
2015-11-06T01:55:37.363Z,74264
2015-11-06T01:55:49.707Z,74268
2015-11-06T01:56:02.051Z,74271
2015-11-06T01:56:14.394Z,74270
2015-11-06T01:56:26.019Z,74267
2015-11-06T01:56:38.366Z,74264
2015-11-06T01:56:50.741Z,74267
2015-11-06T01:57:03.100Z,74269
2015-11-06T01:57:15.475Z,74268
2015-11-06T01:57:27.819Z,74265
2015-11-06T01:57:40.009Z,74267
2015-11-06T01:57:52.368Z,74267
2015-11-06T01:58:04.696Z,74264
2015-11-06T01:58:17.040Z,74269
2015-11-06T01:58:29.384Z,74269
2015-11-06T01:58:41.730Z,74269
2015-11-06T01:58:53.371Z,74265
2015-11-06T01:59:05.730Z,74262
2015-11-06T01:59:18.121Z,74265
2015-11-06T01:59:29.762Z,74264
2015-11-06T01:59:42.108Z,74263
2015-11-06T01:59:54.452Z,74271
2015-11-06T02:00:06.796Z,74268
2015-11-06T02:00:19.140Z,74266
2015-11-06T02:00:31.499Z,74269
2015-11-06T02:00:43.861Z,74271
2015-11-06T02:00:56.221Z,74271
2015-11-06T02:01:08.580Z,74274
2015-11-06T02:01:20.940Z,74271
2015-11-06T02:01:33.268Z,74272
2015-11-06T02:01:45.613Z,74267
2015-11-06T02:01:57.957Z,74262
2015-11-06T02:02:10.317Z,74263
2015-11-06T02:02:22.660Z,74270
2015-11-06T02:02:35.023Z,74267
2015-11-06T02:02:47.382Z,74263
2015-11-06T02:02:59.788Z,74272
2015-11-06T02:03:12.163Z,74270
2015-11-06T02:03:24.523Z,74269
2015-11-06T02:03:36.901Z,74265
2015-11-06T02:03:49.244Z,74267
2015-11-06T02:04:01.573Z,74265
2015-11-06T02:04:13.901Z,74270
2015-11-06T02:04:26.244Z,74275
2015-11-06T02:04:38.591Z,74268
2015-11-06T02:04:50.951Z,74267
2015-11-06T02:05:03.310Z,74268
2015-11-06T02:05:15.701Z,74260
2015-11-06T02:05:27.919Z,74256
2015-11-06T02:05:40.266Z,74257
2015-11-06T02:05:52.610Z,74261
2015-11-06T02:06:04.954Z,74272
2015-11-06T02:06:17.297Z,74269
2015-11-06T02:06:28.922Z,74264
2015-11-06T02:06:41.284Z,74271
2015-11-06T02:06:53.643Z,74263
2015-11-06T02:07:05.987Z,74270
2015-11-06T02:07:18.362Z,74272
2015-11-06T02:07:30.752Z,74273
2015-11-06T02:07:43.114Z,74272
2015-11-06T02:07:55.458Z,74257
2015-11-06T02:08:07.801Z,74257
2015-11-06T02:08:20.145Z,74271
2015-11-06T02:08:32.489Z,74259
2015-11-06T02:08:44.837Z,74259
2015-11-06T02:08:57.196Z,74262
2015-11-06T02:09:09.540Z,74264
2015-11-06T02:09:21.899Z,74263
2015-11-06T02:09:34.274Z,74261
2015-11-06T02:09:46.651Z,74253
2015-11-06T02:09:59.026Z,74263
2015-11-06T02:10:11.385Z,74263
2015-11-06T02:10:23.714Z,74264
2015-11-06T02:10:36.073Z,74265
2015-11-06T02:10:48.404Z,74266
2015-11-06T02:11:00.045Z,74268
2015-11-06T02:11:12.388Z,74266
2015-11-06T02:11:24.732Z,74254
2015-11-06T02:11:37.092Z,74258
2015-11-06T02:11:49.485Z,74264
2015-11-06T02:12:01.876Z,74261
2015-11-06T02:12:14.251Z,74267
2015-11-06T02:12:26.610Z,74274
2015-11-06T02:12:38.954Z,74263
2015-11-06T02:12:51.301Z,74261
2015-11-06T02:13:03.644Z,74264
2015-11-06T02:13:15.988Z,74266
2015-11-06T02:13:28.348Z,74271
2015-11-06T02:13:40.707Z,74263
2015-11-06T02:13:53.053Z,74270
2015-11-06T02:14:05.412Z,74264
2015-11-06T02:14:17.771Z,74264
2015-11-06T02:14:30.146Z,74262
2015-11-06T02:14:42.506Z,74268
2015-11-06T02:14:54.853Z,74272
2015-11-06T02:15:07.212Z,74272
2015-11-06T02:15:19.556Z,74261
2015-11-06T02:15:31.899Z,74255
2015-11-06T02:15:44.259Z,74253
2015-11-06T02:15:56.636Z,74260
2015-11-06T02:16:08.995Z,74261
2015-11-06T02:16:21.401Z,74258
2015-11-06T02:16:33.761Z,74263
2015-11-06T02:16:46.105Z,74259
2015-11-06T02:16:58.467Z,74262
2015-11-06T02:17:10.811Z,74259
2015-11-06T02:17:23.154Z,74264
2015-11-06T02:17:35.498Z,74259
2015-11-06T02:17:47.845Z,74261
2015-11-06T02:18:00.189Z,74261
2015-11-06T02:18:12.564Z,74254
2015-11-06T02:18:24.923Z,74262
2015-11-06T02:18:37.298Z,74261
2015-11-06T02:18:49.645Z,74267
2015-11-06T02:19:01.989Z,74262
2015-11-06T02:19:14.332Z,74264
2015-11-06T02:19:26.676Z,74258
2015-11-06T02:19:39.020Z,74247
2015-11-06T02:19:51.381Z,74253
2015-11-06T02:20:03.756Z,74255
2015-11-06T02:20:16.147Z,74258
2015-11-06T02:20:28.537Z,74255
2015-11-06T02:20:40.881Z,74267
2015-11-06T02:20:53.244Z,74257
2015-11-06T02:21:05.572Z,74262
2015-11-06T02:21:17.931Z,74260
2015-11-06T02:21:30.275Z,74263
2015-11-06T02:21:41.915Z,74264
2015-11-06T02:21:54.278Z,74266
2015-11-06T02:22:06.622Z,74254
2015-11-06T02:22:18.997Z,74262
2015-11-06T02:22:31.387Z,74263
2015-11-06T02:22:43.778Z,74262
2015-11-06T02:22:56.171Z,74262
2015-11-06T02:23:07.812Z,74258
2015-11-06T02:23:20.156Z,74262
2015-11-06T02:23:32.500Z,74263
2015-11-06T02:23:44.843Z,74248
2015-11-06T02:23:57.190Z,74248
2015-11-06T02:24:09.534Z,74249
2015-11-06T02:24:21.878Z,74261
2015-11-06T02:24:34.253Z,74266
2015-11-06T02:24:46.643Z,74252
2015-11-06T02:24:59.005Z,74264
2015-11-06T02:25:11.380Z,74258
2015-11-06T02:25:23.723Z,74264
2015-11-06T02:25:36.067Z,74262
2015-11-06T02:25:48.411Z,74259
2015-11-06T02:26:00.758Z,74256
2015-11-06T02:26:12.961Z,74258
2015-11-06T02:26:25.304Z,74259
2015-11-06T02:26:37.664Z,74245
2015-11-06T02:26:50.023Z,74250
2015-11-06T02:27:02.385Z,74259
2015-11-06T02:27:14.744Z,74268
2015-11-06T02:27:27.088Z,74266
2015-11-06T02:27:39.431Z,74258
2015-11-06T02:27:51.775Z,74258
2015-11-06T02:28:04.184Z,74266
2015-11-06T02:28:15.825Z,74265
2015-11-06T02:28:28.153Z,74267
2015-11-06T02:28:40.513Z,74260
2015-11-06T02:28:52.872Z,74257
2015-11-06T02:29:05.234Z,74257
2015-11-06T02:29:17.594Z,74256
2015-11-06T02:29:29.937Z,74260
2015-11-06T02:29:42.281Z,74266
2015-11-06T02:29:54.656Z,74261
2015-11-06T02:30:07.003Z,74271
2015-11-06T02:30:19.378Z,74266
2015-11-06T02:30:31.753Z,74266
2015-11-06T02:30:44.128Z,74266
2015-11-06T02:30:56.490Z,74276
2015-11-06T02:31:08.881Z,74271
2015-11-06T02:31:21.240Z,74262
2015-11-06T02:31:33.584Z,74266
2015-11-06T02:31:45.928Z,74263
2015-11-06T02:31:58.274Z,74265
2015-11-06T02:32:10.617Z,74262
2015-11-06T02:32:22.977Z,74261
2015-11-06T02:32:35.320Z,74275
2015-11-06T02:32:47.680Z,74272
2015-11-06T02:33:00.026Z,74271
2015-11-06T02:33:12.401Z,74277
2015-11-06T02:33:24.760Z,74270
2015-11-06T02:33:37.104Z,74264
2015-11-06T02:33:49.432Z,74268
2015-11-06T02:34:01.780Z,74267
2015-11-06T02:34:13.983Z,74273
2015-11-06T02:34:26.342Z,74273
2015-11-06T02:34:38.701Z,74268
2015-11-06T02:34:51.092Z,74262
2015-11-06T02:35:03.469Z,74264
2015-11-06T02:35:15.860Z,74260
2015-11-06T02:35:28.235Z,74265
2015-11-06T02:35:40.578Z,74262
2015-11-06T02:35:52.922Z,74267
2015-11-06T02:36:05.113Z,74272
2015-11-06T02:36:17.472Z,74276
2015-11-06T02:36:29.816Z,74268
2015-11-06T02:36:42.160Z,74274
2015-11-06T02:36:54.519Z,74273
2015-11-06T02:37:06.881Z,74269
2015-11-06T02:37:19.241Z,74271
2015-11-06T02:37:31.616Z,74269
2015-11-06T02:37:43.991Z,74267
2015-11-06T02:37:56.319Z,74267
2015-11-06T02:38:08.649Z,74266
2015-11-06T02:38:20.977Z,74261
2015-11-06T02:38:33.321Z,74261
2015-11-06T02:38:45.649Z,74264
2015-11-06T02:38:58.008Z,74266